sensor_id;sensor_type;location;lat;lon;timestamp;P1;durP1;ratioP1;P2;durP2;ratioP2
57225;SDS011;43082;43.568;22.256;2022-12-20T00:01:59;60.08;;;38.90;;
57225;SDS011;43082;43.568;22.256;2022-12-20T00:04:25;65.10;;;42.50;;
57225;SDS011;43082;43.568;22.256;2022-12-20T00:06:50;65.10;;;41.35;;
57225;SDS011;43082;43.568;22.256;2022-12-20T00:09:16;69.03;;;44.33;;
57225;SDS011;43082;43.568;22.256;2022-12-20T00:11:41;58.80;;;38.92;;
57225;SDS011;43082;43.568;22.256;2022-12-20T00:14:07;61.95;;;38.67;;
57225;SDS011;43082;43.568;22.256;2022-12-20T00:16:34;48.65;;;29.98;;
57225;SDS011;43082;43.568;22.256;2022-12-20T00:19:01;39.30;;;26.30;;
57225;SDS011;43082;43.568;22.256;2022-12-20T00:21:28;38.03;;;24.48;;
57225;SDS011;43082;43.568;22.256;2022-12-20T00:23:54;37.92;;;26.35;;
57225;SDS011;43082;43.568;22.256;2022-12-20T00:26:21;42.65;;;27.33;;
57225;SDS011;43082;43.568;22.256;2022-12-20T00:28:48;41.88;;;23.98;;
57225;SDS011;43082;43.568;22.256;2022-12-20T00:31:15;39.28;;;24.25;;
57225;SDS011;43082;43.568;22.256;2022-12-20T00:33:43;37.47;;;24.33;;
57225;SDS011;43082;43.568;22.256;2022-12-20T00:36:10;41.30;;;26.33;;
57225;SDS011;43082;43.568;22.256;2022-12-20T00:38:36;40.97;;;26.73;;
57225;SDS011;43082;43.568;22.256;2022-12-20T00:41:05;43.83;;;27.75;;
57225;SDS011;43082;43.568;22.256;2022-12-20T00:43:33;43.40;;;27.02;;
57225;SDS011;43082;43.568;22.256;2022-12-20T00:45:59;38.97;;;26.25;;
57225;SDS011;43082;43.568;22.256;2022-12-20T00:48:25;37.22;;;24.75;;
57225;SDS011;43082;43.568;22.256;2022-12-20T00:50:51;46.33;;;29.33;;
57225;SDS011;43082;43.568;22.256;2022-12-20T00:53:17;43.65;;;28.27;;
57225;SDS011;43082;43.568;22.256;2022-12-20T00:55:43;41.70;;;27.33;;
57225;SDS011;43082;43.568;22.256;2022-12-20T00:58:09;42.20;;;26.73;;
57225;SDS011;43082;43.568;22.256;2022-12-20T01:00:35;43.05;;;26.90;;
57225;SDS011;43082;43.568;22.256;2022-12-20T01:03:02;46.42;;;29.33;;
57225;SDS011;43082;43.568;22.256;2022-12-20T01:05:27;42.20;;;27.83;;
57225;SDS011;43082;43.568;22.256;2022-12-20T01:07:53;50.03;;;34.75;;
57225;SDS011;43082;43.568;22.256;2022-12-20T01:10:18;59.95;;;39.38;;
57225;SDS011;43082;43.568;22.256;2022-12-20T01:12:44;60.78;;;40.42;;
57225;SDS011;43082;43.568;22.256;2022-12-20T01:15:09;45.78;;;30.15;;
57225;SDS011;43082;43.568;22.256;2022-12-20T01:17:35;44.70;;;27.42;;
57225;SDS011;43082;43.568;22.256;2022-12-20T01:20:01;38.95;;;26.17;;
57225;SDS011;43082;43.568;22.256;2022-12-20T01:22:27;49.60;;;31.92;;
57225;SDS011;43082;43.568;22.256;2022-12-20T01:24:52;47.58;;;30.80;;
57225;SDS011;43082;43.568;22.256;2022-12-20T01:27:18;50.40;;;30.52;;
57225;SDS011;43082;43.568;22.256;2022-12-20T01:29:43;41.97;;;27.45;;
57225;SDS011;43082;43.568;22.256;2022-12-20T01:32:09;43.65;;;28.83;;
57225;SDS011;43082;43.568;22.256;2022-12-20T01:34:34;39.42;;;25.73;;
57225;SDS011;43082;43.568;22.256;2022-12-20T01:37:00;44.38;;;29.88;;
57225;SDS011;43082;43.568;22.256;2022-12-20T01:39:25;53.05;;;33.03;;
57225;SDS011;43082;43.568;22.256;2022-12-20T01:41:51;58.03;;;35.03;;
57225;SDS011;43082;43.568;22.256;2022-12-20T01:46:42;58.08;;;35.67;;
57225;SDS011;43082;43.568;22.256;2022-12-20T01:49:09;70.28;;;39.55;;
57225;SDS011;43082;43.568;22.256;2022-12-20T01:51:43;63.33;;;38.72;;
57225;SDS011;43082;43.568;22.256;2022-12-20T01:54:14;68.70;;;41.17;;
57225;SDS011;43082;43.568;22.256;2022-12-20T01:56:43;62.30;;;37.25;;
57225;SDS011;43082;43.568;22.256;2022-12-20T01:59:12;53.90;;;33.08;;
57225;SDS011;43082;43.568;22.256;2022-12-20T02:01:38;55.55;;;33.60;;
57225;SDS011;43082;43.568;22.256;2022-12-20T02:04:04;56.10;;;37.15;;
57225;SDS011;43082;43.568;22.256;2022-12-20T02:06:30;62.10;;;39.33;;
57225;SDS011;43082;43.568;22.256;2022-12-20T02:08:57;56.25;;;35.33;;
57225;SDS011;43082;43.568;22.256;2022-12-20T02:14:58;50.05;;;30.80;;
57225;SDS011;43082;43.568;22.256;2022-12-20T02:31:36;50.20;;;33.20;;
57225;SDS011;43082;43.568;22.256;2022-12-20T02:34:05;48.55;;;31.77;;
57225;SDS011;43082;43.568;22.256;2022-12-20T02:36:31;45.40;;;30.13;;
57225;SDS011;43082;43.568;22.256;2022-12-20T02:38:57;41.13;;;27.10;;
57225;SDS011;43082;43.568;22.256;2022-12-20T02:41:26;42.38;;;28.00;;
57225;SDS011;43082;43.568;22.256;2022-12-20T02:44:00;42.15;;;28.50;;
57225;SDS011;43082;43.568;22.256;2022-12-20T02:46:46;45.40;;;30.85;;
57225;SDS011;43082;43.568;22.256;2022-12-20T02:49:13;47.38;;;32.00;;
57225;SDS011;43082;43.568;22.256;2022-12-20T02:51:41;47.28;;;32.20;;
57225;SDS011;43082;43.568;22.256;2022-12-20T02:54:08;44.25;;;30.65;;
57225;SDS011;43082;43.568;22.256;2022-12-20T02:56:36;45.45;;;30.65;;
57225;SDS011;43082;43.568;22.256;2022-12-20T02:59:06;41.38;;;26.60;;
57225;SDS011;43082;43.568;22.256;2022-12-20T03:01:43;40.05;;;27.13;;
57225;SDS011;43082;43.568;22.256;2022-12-20T03:04:10;33.58;;;22.92;;
57225;SDS011;43082;43.568;22.256;2022-12-20T03:06:37;38.95;;;26.02;;
57225;SDS011;43082;43.568;22.256;2022-12-20T03:09:03;41.95;;;27.67;;
57225;SDS011;43082;43.568;22.256;2022-12-20T03:11:29;35.75;;;24.90;;
57225;SDS011;43082;43.568;22.256;2022-12-20T03:13:54;36.30;;;25.40;;
57225;SDS011;43082;43.568;22.256;2022-12-20T03:16:20;36.72;;;24.08;;
57225;SDS011;43082;43.568;22.256;2022-12-20T03:18:45;36.03;;;24.63;;
57225;SDS011;43082;43.568;22.256;2022-12-20T03:21:12;39.08;;;26.92;;
57225;SDS011;43082;43.568;22.256;2022-12-20T03:23:37;40.55;;;25.98;;
57225;SDS011;43082;43.568;22.256;2022-12-20T03:26:03;38.45;;;25.23;;
57225;SDS011;43082;43.568;22.256;2022-12-20T03:28:28;36.47;;;23.55;;
57225;SDS011;43082;43.568;22.256;2022-12-20T03:30:54;39.58;;;26.20;;
57225;SDS011;43082;43.568;22.256;2022-12-20T03:33:19;41.08;;;27.45;;
57225;SDS011;43082;43.568;22.256;2022-12-20T03:35:45;41.28;;;27.88;;
57225;SDS011;43082;43.568;22.256;2022-12-20T03:38:11;42.42;;;28.42;;
57225;SDS011;43082;43.568;22.256;2022-12-20T03:40:37;41.67;;;28.73;;
57225;SDS011;43082;43.568;22.256;2022-12-20T03:43:02;52.47;;;36.05;;
57225;SDS011;43082;43.568;22.256;2022-12-20T03:45:27;54.05;;;37.03;;
57225;SDS011;43082;43.568;22.256;2022-12-20T03:47:53;60.00;;;42.33;;
57225;SDS011;43082;43.568;22.256;2022-12-20T03:50:18;63.08;;;43.17;;
57225;SDS011;43082;43.568;22.256;2022-12-20T03:52:44;57.08;;;40.33;;
57225;SDS011;43082;43.568;22.256;2022-12-20T03:55:09;56.15;;;40.50;;
57225;SDS011;43082;43.568;22.256;2022-12-20T03:57:36;50.55;;;35.42;;
57225;SDS011;43082;43.568;22.256;2022-12-20T04:00:02;46.78;;;35.05;;
57225;SDS011;43082;43.568;22.256;2022-12-20T04:02:28;46.80;;;30.38;;
57225;SDS011;43082;43.568;22.256;2022-12-20T04:04:53;46.53;;;32.08;;
57225;SDS011;43082;43.568;22.256;2022-12-20T04:07:19;46.20;;;32.83;;
57225;SDS011;43082;43.568;22.256;2022-12-20T04:09:44;46.90;;;32.47;;
57225;SDS011;43082;43.568;22.256;2022-12-20T04:12:10;45.28;;;31.77;;
57225;SDS011;43082;43.568;22.256;2022-12-20T04:14:35;44.50;;;28.83;;
57225;SDS011;43082;43.568;22.256;2022-12-20T04:17:01;42.55;;;29.10;;
57225;SDS011;43082;43.568;22.256;2022-12-20T04:19:27;44.85;;;30.95;;
57225;SDS011;43082;43.568;22.256;2022-12-20T04:21:52;47.80;;;31.52;;
57225;SDS011;43082;43.568;22.256;2022-12-20T04:24:20;51.03;;;35.10;;
57225;SDS011;43082;43.568;22.256;2022-12-20T04:26:45;58.80;;;38.75;;
57225;SDS011;43082;43.568;22.256;2022-12-20T04:29:11;64.93;;;43.88;;
57225;SDS011;43082;43.568;22.256;2022-12-20T04:31:36;68.30;;;43.63;;
57225;SDS011;43082;43.568;22.256;2022-12-20T04:34:02;62.22;;;42.78;;
57225;SDS011;43082;43.568;22.256;2022-12-20T04:36:27;61.22;;;40.42;;
57225;SDS011;43082;43.568;22.256;2022-12-20T04:38:53;59.10;;;40.20;;
57225;SDS011;43082;43.568;22.256;2022-12-20T04:41:19;68.57;;;46.90;;
57225;SDS011;43082;43.568;22.256;2022-12-20T04:43:51;72.57;;;45.30;;
57225;SDS011;43082;43.568;22.256;2022-12-20T04:46:18;64.28;;;43.75;;
57225;SDS011;43082;43.568;22.256;2022-12-20T04:48:43;61.15;;;41.88;;
57225;SDS011;43082;43.568;22.256;2022-12-20T04:51:09;68.65;;;47.58;;
57225;SDS011;43082;43.568;22.256;2022-12-20T04:53:34;59.08;;;41.33;;
57225;SDS011;43082;43.568;22.256;2022-12-20T04:56:12;52.50;;;36.35;;
57225;SDS011;43082;43.568;22.256;2022-12-20T04:58:46;59.67;;;43.33;;
57225;SDS011;43082;43.568;22.256;2022-12-20T05:01:13;55.85;;;39.42;;
57225;SDS011;43082;43.568;22.256;2022-12-20T05:03:38;68.15;;;46.10;;
57225;SDS011;43082;43.568;22.256;2022-12-20T05:06:04;55.88;;;38.35;;
57225;SDS011;43082;43.568;22.256;2022-12-20T05:08:30;61.42;;;41.25;;
57225;SDS011;43082;43.568;22.256;2022-12-20T05:10:56;54.58;;;37.17;;
57225;SDS011;43082;43.568;22.256;2022-12-20T05:13:21;57.65;;;39.80;;
57225;SDS011;43082;43.568;22.256;2022-12-20T05:15:50;52.63;;;37.38;;
57225;SDS011;43082;43.568;22.256;2022-12-20T05:18:17;55.92;;;36.72;;
57225;SDS011;43082;43.568;22.256;2022-12-20T05:20:43;56.53;;;38.50;;
57225;SDS011;43082;43.568;22.256;2022-12-20T05:23:09;66.53;;;42.47;;
57225;SDS011;43082;43.568;22.256;2022-12-20T05:25:53;61.95;;;39.28;;
57225;SDS011;43082;43.568;22.256;2022-12-20T05:28:38;62.85;;;40.63;;
57225;SDS011;43082;43.568;22.256;2022-12-20T05:31:03;63.22;;;39.75;;
57225;SDS011;43082;43.568;22.256;2022-12-20T05:33:29;60.10;;;38.72;;
57225;SDS011;43082;43.568;22.256;2022-12-20T05:35:54;67.05;;;43.38;;
57225;SDS011;43082;43.568;22.256;2022-12-20T05:38:20;91.43;;;70.10;;
57225;SDS011;43082;43.568;22.256;2022-12-20T05:40:47;65.65;;;47.70;;
57225;SDS011;43082;43.568;22.256;2022-12-20T05:43:13;65.10;;;43.30;;
57225;SDS011;43082;43.568;22.256;2022-12-20T05:45:39;101.18;;;77.22;;
57225;SDS011;43082;43.568;22.256;2022-12-20T05:48:05;76.63;;;51.53;;
57225;SDS011;43082;43.568;22.256;2022-12-20T05:50:30;78.55;;;51.28;;
57225;SDS011;43082;43.568;22.256;2022-12-20T05:52:56;79.95;;;53.20;;
57225;SDS011;43082;43.568;22.256;2022-12-20T05:55:21;79.30;;;53.97;;
57225;SDS011;43082;43.568;22.256;2022-12-20T05:57:47;75.40;;;50.90;;
57225;SDS011;43082;43.568;22.256;2022-12-20T06:00:12;74.95;;;50.97;;
57225;SDS011;43082;43.568;22.256;2022-12-20T06:02:39;82.80;;;57.25;;
57225;SDS011;43082;43.568;22.256;2022-12-20T06:05:04;74.45;;;49.63;;
57225;SDS011;43082;43.568;22.256;2022-12-20T06:07:30;135.23;;;87.97;;
57225;SDS011;43082;43.568;22.256;2022-12-20T06:09:56;84.28;;;53.78;;
57225;SDS011;43082;43.568;22.256;2022-12-20T06:12:22;107.60;;;72.82;;
57225;SDS011;43082;43.568;22.256;2022-12-20T06:14:47;84.43;;;56.63;;
57225;SDS011;43082;43.568;22.256;2022-12-20T06:17:13;96.03;;;60.97;;
57225;SDS011;43082;43.568;22.256;2022-12-20T06:19:38;91.32;;;60.42;;
57225;SDS011;43082;43.568;22.256;2022-12-20T06:22:05;61.13;;;43.65;;
57225;SDS011;43082;43.568;22.256;2022-12-20T06:24:32;55.42;;;40.00;;
57225;SDS011;43082;43.568;22.256;2022-12-20T06:27:01;65.60;;;43.28;;
57225;SDS011;43082;43.568;22.256;2022-12-20T06:29:27;55.25;;;36.47;;
57225;SDS011;43082;43.568;22.256;2022-12-20T06:31:52;50.40;;;35.95;;
57225;SDS011;43082;43.568;22.256;2022-12-20T06:34:18;70.88;;;45.83;;
57225;SDS011;43082;43.568;22.256;2022-12-20T06:36:44;75.53;;;50.55;;
57225;SDS011;43082;43.568;22.256;2022-12-20T06:39:10;86.15;;;61.80;;
57225;SDS011;43082;43.568;22.256;2022-12-20T06:41:35;54.28;;;39.13;;
57225;SDS011;43082;43.568;22.256;2022-12-20T06:44:01;46.30;;;33.33;;
57225;SDS011;43082;43.568;22.256;2022-12-20T06:46:26;40.80;;;30.23;;
57225;SDS011;43082;43.568;22.256;2022-12-20T06:48:52;46.25;;;34.60;;
57225;SDS011;43082;43.568;22.256;2022-12-20T06:51:20;40.22;;;27.73;;
57225;SDS011;43082;43.568;22.256;2022-12-20T06:53:45;44.70;;;32.35;;
57225;SDS011;43082;43.568;22.256;2022-12-20T06:56:10;35.45;;;25.38;;
57225;SDS011;43082;43.568;22.256;2022-12-20T06:58:36;38.65;;;26.67;;
57225;SDS011;43082;43.568;22.256;2022-12-20T07:01:01;36.60;;;25.10;;
57225;SDS011;43082;43.568;22.256;2022-12-20T07:03:27;39.88;;;26.88;;
57225;SDS011;43082;43.568;22.256;2022-12-20T07:05:53;35.83;;;25.27;;
57225;SDS011;43082;43.568;22.256;2022-12-20T07:08:19;33.90;;;21.90;;
57225;SDS011;43082;43.568;22.256;2022-12-20T07:10:45;46.72;;;28.02;;
57225;SDS011;43082;43.568;22.256;2022-12-20T07:13:11;44.00;;;26.60;;
57225;SDS011;43082;43.568;22.256;2022-12-20T07:15:36;36.42;;;24.00;;
57225;SDS011;43082;43.568;22.256;2022-12-20T07:18:02;35.75;;;25.63;;
57225;SDS011;43082;43.568;22.256;2022-12-20T07:20:28;38.20;;;26.02;;
57225;SDS011;43082;43.568;22.256;2022-12-20T07:22:54;32.60;;;23.40;;
57225;SDS011;43082;43.568;22.256;2022-12-20T07:25:19;29.92;;;21.42;;
57225;SDS011;43082;43.568;22.256;2022-12-20T07:27:46;46.58;;;31.48;;
57225;SDS011;43082;43.568;22.256;2022-12-20T07:30:13;28.40;;;18.95;;
57225;SDS011;43082;43.568;22.256;2022-12-20T07:32:39;27.25;;;18.63;;
57225;SDS011;43082;43.568;22.256;2022-12-20T07:35:05;25.92;;;18.13;;
57225;SDS011;43082;43.568;22.256;2022-12-20T07:37:31;23.08;;;16.40;;
57225;SDS011;43082;43.568;22.256;2022-12-20T07:39:56;25.52;;;17.83;;
57225;SDS011;43082;43.568;22.256;2022-12-20T07:42:22;27.63;;;19.83;;
57225;SDS011;43082;43.568;22.256;2022-12-20T07:44:47;31.98;;;22.17;;
57225;SDS011;43082;43.568;22.256;2022-12-20T07:47:13;35.63;;;22.92;;
57225;SDS011;43082;43.568;22.256;2022-12-20T07:49:38;34.15;;;23.13;;
57225;SDS011;43082;43.568;22.256;2022-12-20T07:52:03;25.65;;;17.85;;
57225;SDS011;43082;43.568;22.256;2022-12-20T07:54:31;25.60;;;18.13;;
57225;SDS011;43082;43.568;22.256;2022-12-20T07:57:01;27.90;;;20.58;;
57225;SDS011;43082;43.568;22.256;2022-12-20T07:59:32;25.27;;;16.77;;
57225;SDS011;43082;43.568;22.256;2022-12-20T08:02:01;23.67;;;15.82;;
57225;SDS011;43082;43.568;22.256;2022-12-20T08:04:26;21.58;;;15.02;;
57225;SDS011;43082;43.568;22.256;2022-12-20T08:06:53;22.00;;;14.32;;
57225;SDS011;43082;43.568;22.256;2022-12-20T08:09:20;25.23;;;15.88;;
57225;SDS011;43082;43.568;22.256;2022-12-20T08:11:46;23.83;;;17.13;;
57225;SDS011;43082;43.568;22.256;2022-12-20T08:14:12;23.52;;;16.50;;
57225;SDS011;43082;43.568;22.256;2022-12-20T08:16:38;22.95;;;16.08;;
57225;SDS011;43082;43.568;22.256;2022-12-20T08:19:03;25.48;;;15.68;;
57225;SDS011;43082;43.568;22.256;2022-12-20T08:21:29;21.92;;;13.20;;
57225;SDS011;43082;43.568;22.256;2022-12-20T08:23:54;21.58;;;14.15;;
57225;SDS011;43082;43.568;22.256;2022-12-20T08:26:20;24.90;;;16.83;;
57225;SDS011;43082;43.568;22.256;2022-12-20T08:28:46;24.05;;;15.65;;
57225;SDS011;43082;43.568;22.256;2022-12-20T08:31:11;26.98;;;17.05;;
57225;SDS011;43082;43.568;22.256;2022-12-20T08:33:37;22.40;;;15.18;;
57225;SDS011;43082;43.568;22.256;2022-12-20T08:36:05;21.90;;;13.75;;
57225;SDS011;43082;43.568;22.256;2022-12-20T08:38:32;20.52;;;13.48;;
57225;SDS011;43082;43.568;22.256;2022-12-20T08:41:02;26.05;;;16.83;;
57225;SDS011;43082;43.568;22.256;2022-12-20T08:43:29;24.02;;;16.98;;
57225;SDS011;43082;43.568;22.256;2022-12-20T08:45:55;27.90;;;19.75;;
57225;SDS011;43082;43.568;22.256;2022-12-20T08:48:21;30.52;;;21.80;;
57225;SDS011;43082;43.568;22.256;2022-12-20T08:50:47;30.77;;;20.02;;
57225;SDS011;43082;43.568;22.256;2022-12-20T08:53:17;19.67;;;12.80;;
57225;SDS011;43082;43.568;22.256;2022-12-20T08:55:43;22.10;;;13.18;;
57225;SDS011;43082;43.568;22.256;2022-12-20T08:58:08;22.15;;;15.10;;
57225;SDS011;43082;43.568;22.256;2022-12-20T09:00:34;20.58;;;14.48;;
57225;SDS011;43082;43.568;22.256;2022-12-20T09:03:00;22.38;;;13.95;;
57225;SDS011;43082;43.568;22.256;2022-12-20T09:05:25;24.70;;;14.35;;
57225;SDS011;43082;43.568;22.256;2022-12-20T09:07:51;25.05;;;15.45;;
57225;SDS011;43082;43.568;22.256;2022-12-20T09:10:16;21.80;;;15.98;;
57225;SDS011;43082;43.568;22.256;2022-12-20T09:12:42;22.63;;;16.33;;
57225;SDS011;43082;43.568;22.256;2022-12-20T09:15:07;19.98;;;13.10;;
57225;SDS011;43082;43.568;22.256;2022-12-20T09:17:33;32.38;;;20.52;;
57225;SDS011;43082;43.568;22.256;2022-12-20T09:19:59;25.17;;;17.08;;
57225;SDS011;43082;43.568;22.256;2022-12-20T09:22:24;22.98;;;14.50;;
57225;SDS011;43082;43.568;22.256;2022-12-20T09:24:50;19.23;;;12.93;;
57225;SDS011;43082;43.568;22.256;2022-12-20T09:27:15;19.92;;;12.30;;
57225;SDS011;43082;43.568;22.256;2022-12-20T09:29:40;17.90;;;12.50;;
57225;SDS011;43082;43.568;22.256;2022-12-20T09:32:06;20.15;;;12.73;;
57225;SDS011;43082;43.568;22.256;2022-12-20T09:34:31;20.02;;;13.23;;
57225;SDS011;43082;43.568;22.256;2022-12-20T09:36:56;19.83;;;13.52;;
57225;SDS011;43082;43.568;22.256;2022-12-20T09:39:22;23.10;;;15.80;;
57225;SDS011;43082;43.568;22.256;2022-12-20T09:41:47;20.95;;;13.80;;
57225;SDS011;43082;43.568;22.256;2022-12-20T09:46:50;22.02;;;15.10;;
57225;SDS011;43082;43.568;22.256;2022-12-20T09:49:18;24.33;;;16.05;;
57225;SDS011;43082;43.568;22.256;2022-12-20T09:59:23;18.88;;;12.80;;
57225;SDS011;43082;43.568;22.256;2022-12-20T10:01:49;20.65;;;14.85;;
57225;SDS011;43082;43.568;22.256;2022-12-20T10:04:22;22.05;;;14.32;;
57225;SDS011;43082;43.568;22.256;2022-12-20T10:09:42;19.75;;;14.95;;
57225;SDS011;43082;43.568;22.256;2022-12-20T10:15:35;22.95;;;14.80;;
57225;SDS011;43082;43.568;22.256;2022-12-20T10:23:29;18.70;;;10.27;;
57225;SDS011;43082;43.568;22.256;2022-12-20T10:25:59;20.27;;;13.32;;
57225;SDS011;43082;43.568;22.256;2022-12-20T10:28:29;18.60;;;12.25;;
57225;SDS011;43082;43.568;22.256;2022-12-20T10:30:58;21.77;;;14.77;;
57225;SDS011;43082;43.568;22.256;2022-12-20T10:33:25;19.65;;;13.18;;
57225;SDS011;43082;43.568;22.256;2022-12-20T10:35:51;19.25;;;12.27;;
57225;SDS011;43082;43.568;22.256;2022-12-20T10:38:17;18.02;;;11.18;;
57225;SDS011;43082;43.568;22.256;2022-12-20T10:40:47;17.90;;;11.32;;
57225;SDS011;43082;43.568;22.256;2022-12-20T10:43:22;18.50;;;11.55;;
57225;SDS011;43082;43.568;22.256;2022-12-20T10:46:09;18.17;;;11.70;;
57225;SDS011;43082;43.568;22.256;2022-12-20T10:48:34;18.88;;;10.70;;
57225;SDS011;43082;43.568;22.256;2022-12-20T10:53:32;17.23;;;11.10;;
57225;SDS011;43082;43.568;22.256;2022-12-20T10:59:27;23.83;;;14.35;;
57225;SDS011;43082;43.568;22.256;2022-12-20T11:01:58;22.37;;;14.00;;
57225;SDS011;43082;43.568;22.256;2022-12-20T11:06:55;19.23;;;12.73;;
57225;SDS011;43082;43.568;22.256;2022-12-20T11:09:31;22.15;;;13.88;;
57225;SDS011;43082;43.568;22.256;2022-12-20T11:12:16;23.27;;;15.10;;
57225;SDS011;43082;43.568;22.256;2022-12-20T11:14:42;23.58;;;13.30;;
57225;SDS011;43082;43.568;22.256;2022-12-20T11:22:27;23.67;;;15.40;;
57225;SDS011;43082;43.568;22.256;2022-12-20T11:27:40;27.73;;;19.38;;
57225;SDS011;43082;43.568;22.256;2022-12-20T11:30:29;26.58;;;17.77;;
57225;SDS011;43082;43.568;22.256;2022-12-20T11:35:57;23.48;;;15.70;;
57225;SDS011;43082;43.568;22.256;2022-12-20T11:38:42;17.45;;;12.32;;
57225;SDS011;43082;43.568;22.256;2022-12-20T11:43:47;21.98;;;13.93;;
57225;SDS011;43082;43.568;22.256;2022-12-20T11:54:55;18.60;;;12.50;;
57225;SDS011;43082;43.568;22.256;2022-12-20T11:57:29;24.23;;;16.42;;
57225;SDS011;43082;43.568;22.256;2022-12-20T12:00:00;30.10;;;19.13;;
57225;SDS011;43082;43.568;22.256;2022-12-20T12:02:37;30.48;;;18.60;;
57225;SDS011;43082;43.568;22.256;2022-12-20T12:05:25;25.45;;;16.17;;
57225;SDS011;43082;43.568;22.256;2022-12-20T12:07:59;17.48;;;11.13;;
57225;SDS011;43082;43.568;22.256;2022-12-20T12:10:29;21.60;;;13.75;;
57225;SDS011;43082;43.568;22.256;2022-12-20T12:13:14;24.67;;;15.57;;
57225;SDS011;43082;43.568;22.256;2022-12-20T12:16:00;25.55;;;13.23;;
57225;SDS011;43082;43.568;22.256;2022-12-20T12:18:32;22.38;;;14.18;;
57225;SDS011;43082;43.568;22.256;2022-12-20T12:21:03;22.58;;;15.15;;
57225;SDS011;43082;43.568;22.256;2022-12-20T12:26:29;27.27;;;18.17;;
57225;SDS011;43082;43.568;22.256;2022-12-20T12:28:57;25.67;;;15.07;;
57225;SDS011;43082;43.568;22.256;2022-12-20T12:34:07;20.83;;;13.95;;
57225;SDS011;43082;43.568;22.256;2022-12-20T12:36:38;24.08;;;16.35;;
57225;SDS011;43082;43.568;22.256;2022-12-20T12:47:04;19.75;;;13.30;;
57225;SDS011;43082;43.568;22.256;2022-12-20T12:49:31;20.35;;;13.50;;
57225;SDS011;43082;43.568;22.256;2022-12-20T12:51:58;21.17;;;12.00;;
57225;SDS011;43082;43.568;22.256;2022-12-20T12:54:26;20.73;;;14.00;;
57225;SDS011;43082;43.568;22.256;2022-12-20T12:56:58;31.55;;;21.38;;
57225;SDS011;43082;43.568;22.256;2022-12-20T13:07:24;22.25;;;15.38;;
57225;SDS011;43082;43.568;22.256;2022-12-20T13:09:56;23.00;;;15.60;;
57225;SDS011;43082;43.568;22.256;2022-12-20T13:15:00;29.17;;;20.08;;
57225;SDS011;43082;43.568;22.256;2022-12-20T13:19:54;21.50;;;14.98;;
57225;SDS011;43082;43.568;22.256;2022-12-20T13:22:20;22.02;;;14.95;;
57225;SDS011;43082;43.568;22.256;2022-12-20T13:24:52;33.47;;;20.40;;
57225;SDS011;43082;43.568;22.256;2022-12-20T13:27:29;26.73;;;17.90;;
57225;SDS011;43082;43.568;22.256;2022-12-20T13:41:01;23.20;;;16.30;;
57225;SDS011;43082;43.568;22.256;2022-12-20T13:43:40;21.33;;;14.55;;
57225;SDS011;43082;43.568;22.256;2022-12-20T13:51:05;20.35;;;13.30;;
57225;SDS011;43082;43.568;22.256;2022-12-20T13:53:32;17.75;;;11.20;;
57225;SDS011;43082;43.568;22.256;2022-12-20T13:55:57;20.33;;;14.35;;
57225;SDS011;43082;43.568;22.256;2022-12-20T13:58:32;24.05;;;16.20;;
57225;SDS011;43082;43.568;22.256;2022-12-20T14:01:04;24.02;;;15.55;;
57225;SDS011;43082;43.568;22.256;2022-12-20T14:03:31;21.42;;;12.95;;
57225;SDS011;43082;43.568;22.256;2022-12-20T14:06:01;26.08;;;16.60;;
57225;SDS011;43082;43.568;22.256;2022-12-20T14:08:37;25.85;;;17.55;;
57225;SDS011;43082;43.568;22.256;2022-12-20T14:11:13;25.70;;;18.88;;
57225;SDS011;43082;43.568;22.256;2022-12-20T14:13:53;27.55;;;17.80;;
57225;SDS011;43082;43.568;22.256;2022-12-20T14:16:23;25.35;;;18.25;;
57225;SDS011;43082;43.568;22.256;2022-12-20T14:21:20;24.20;;;15.95;;
57225;SDS011;43082;43.568;22.256;2022-12-20T14:23:47;26.33;;;19.27;;
57225;SDS011;43082;43.568;22.256;2022-12-20T14:26:15;25.27;;;17.48;;
57225;SDS011;43082;43.568;22.256;2022-12-20T14:28:43;30.88;;;20.60;;
57225;SDS011;43082;43.568;22.256;2022-12-20T14:36:39;21.88;;;14.93;;
57225;SDS011;43082;43.568;22.256;2022-12-20T14:39:25;20.38;;;14.48;;
57225;SDS011;43082;43.568;22.256;2022-12-20T14:42:02;26.30;;;17.45;;
57225;SDS011;43082;43.568;22.256;2022-12-20T14:44:37;28.23;;;20.50;;
57225;SDS011;43082;43.568;22.256;2022-12-20T14:47:11;23.30;;;16.90;;
57225;SDS011;43082;43.568;22.256;2022-12-20T14:49:37;32.30;;;22.20;;
57225;SDS011;43082;43.568;22.256;2022-12-20T14:54:39;35.90;;;25.80;;
57225;SDS011;43082;43.568;22.256;2022-12-20T14:57:19;23.13;;;15.57;;
57225;SDS011;43082;43.568;22.256;2022-12-20T14:59:55;27.35;;;17.83;;
57225;SDS011;43082;43.568;22.256;2022-12-20T15:05:08;25.25;;;17.95;;
57225;SDS011;43082;43.568;22.256;2022-12-20T15:08:10;34.70;;;21.88;;
57225;SDS011;43082;43.568;22.256;2022-12-20T15:10:35;37.88;;;26.40;;
57225;SDS011;43082;43.568;22.256;2022-12-20T15:13:01;31.50;;;19.48;;
57225;SDS011;43082;43.568;22.256;2022-12-20T15:15:27;25.25;;;17.08;;
57225;SDS011;43082;43.568;22.256;2022-12-20T15:17:52;23.95;;;16.27;;
57225;SDS011;43082;43.568;22.256;2022-12-20T15:20:17;25.35;;;17.63;;
57225;SDS011;43082;43.568;22.256;2022-12-20T15:22:43;25.65;;;17.63;;
57225;SDS011;43082;43.568;22.256;2022-12-20T15:25:15;25.55;;;18.45;;
57225;SDS011;43082;43.568;22.256;2022-12-20T15:27:41;25.13;;;17.48;;
57225;SDS011;43082;43.568;22.256;2022-12-20T15:30:12;26.50;;;19.85;;
57225;SDS011;43082;43.568;22.256;2022-12-20T15:32:38;30.67;;;20.67;;
57225;SDS011;43082;43.568;22.256;2022-12-20T15:35:04;34.97;;;22.88;;
57225;SDS011;43082;43.568;22.256;2022-12-20T15:37:30;29.50;;;20.92;;
57225;SDS011;43082;43.568;22.256;2022-12-20T15:39:55;34.53;;;24.30;;
57225;SDS011;43082;43.568;22.256;2022-12-20T15:42:20;43.58;;;31.13;;
57225;SDS011;43082;43.568;22.256;2022-12-20T15:44:47;43.90;;;32.95;;
57225;SDS011;43082;43.568;22.256;2022-12-20T15:47:13;41.78;;;30.75;;
57225;SDS011;43082;43.568;22.256;2022-12-20T15:49:38;33.05;;;23.60;;
57225;SDS011;43082;43.568;22.256;2022-12-20T15:52:04;39.47;;;30.10;;
57225;SDS011;43082;43.568;22.256;2022-12-20T15:54:34;41.47;;;29.88;;
57225;SDS011;43082;43.568;22.256;2022-12-20T15:57:04;33.45;;;23.83;;
57225;SDS011;43082;43.568;22.256;2022-12-20T15:59:34;34.40;;;23.67;;
57225;SDS011;43082;43.568;22.256;2022-12-20T16:01:59;30.95;;;23.27;;
57225;SDS011;43082;43.568;22.256;2022-12-20T16:04:25;28.38;;;21.55;;
57225;SDS011;43082;43.568;22.256;2022-12-20T16:06:52;31.67;;;23.25;;
57225;SDS011;43082;43.568;22.256;2022-12-20T16:09:17;35.03;;;26.48;;
57225;SDS011;43082;43.568;22.256;2022-12-20T16:11:43;40.88;;;30.42;;
57225;SDS011;43082;43.568;22.256;2022-12-20T16:14:16;39.33;;;28.88;;
57225;SDS011;43082;43.568;22.256;2022-12-20T16:16:42;49.78;;;36.15;;
57225;SDS011;43082;43.568;22.256;2022-12-20T16:19:09;37.53;;;29.70;;
57225;SDS011;43082;43.568;22.256;2022-12-20T16:21:38;34.08;;;23.17;;